createdAt,value
2023-01-19T00:01:31.787Z,3.97
2023-01-19T00:03:59.454Z,4.18
2023-01-19T00:06:27.351Z,4.18
2023-01-19T00:08:55.173Z,4.00
2023-01-19T00:11:22.654Z,4.07
2023-01-19T00:13:50.765Z,4.22
2023-01-19T00:16:19.975Z,3.90
2023-01-19T00:18:47.944Z,4.10
2023-01-19T00:21:15.778Z,3.50
2023-01-19T00:23:47.397Z,4.15
2023-01-19T00:26:18.851Z,3.75
2023-01-19T00:28:46.429Z,3.92
2023-01-19T00:31:14.070Z,4.00
2023-01-19T00:33:41.709Z,4.20
2023-01-19T00:36:09.964Z,4.13
2023-01-19T00:38:38.918Z,3.78
2023-01-19T00:41:06.526Z,3.58
2023-01-19T00:43:34.089Z,4.00
2023-01-19T00:46:01.634Z,3.95
2023-01-19T00:48:29.500Z,3.95
2023-01-19T00:50:56.984Z,3.88
2023-01-19T00:53:24.399Z,4.07
2023-01-19T00:55:51.872Z,3.92
2023-01-19T00:58:19.340Z,3.80
2023-01-19T01:00:46.823Z,3.63
2023-01-19T01:03:14.344Z,4.10
2023-01-19T01:05:42.474Z,4.25
2023-01-19T01:10:37.266Z,3.60
2023-01-19T01:13:23.609Z,3.03
2023-01-19T01:15:53.714Z,3.38
2023-01-19T01:18:22.051Z,3.33
2023-01-19T01:23:22.899Z,3.20
2023-01-19T01:25:50.649Z,3.47
2023-01-19T01:28:18.507Z,3.53
2023-01-19T01:30:46.013Z,4.03
2023-01-19T01:33:13.921Z,3.67
2023-01-19T01:35:41.689Z,3.30
2023-01-19T01:38:09.338Z,4.15
2023-01-19T01:40:40.652Z,3.50
2023-01-19T01:43:16.419Z,3.83
2023-01-19T01:45:44.800Z,3.00
2023-01-19T01:48:15.356Z,3.58
2023-01-19T01:51:18.891Z,3.78
2023-01-19T01:53:51.117Z,3.42
2023-01-19T01:56:24.430Z,3.28
2023-01-19T01:58:52.223Z,3.63
2023-01-19T02:01:38.509Z,3.75
2023-01-19T02:04:06.023Z,3.28
2023-01-19T02:06:34.564Z,3.28
2023-01-19T02:09:28.944Z,4.00
2023-01-19T02:12:16.298Z,3.28
2023-01-19T02:14:43.893Z,4.07
2023-01-19T02:17:11.318Z,4.00
2023-01-19T02:19:42.636Z,3.80
2023-01-19T02:22:24.187Z,3.58
2023-01-19T02:24:52.805Z,3.30
2023-01-19T02:27:20.874Z,4.07
2023-01-19T02:29:48.439Z,4.15
2023-01-19T02:32:15.993Z,4.75
2023-01-19T02:34:43.561Z,3.45
2023-01-19T02:37:13.329Z,4.05
2023-01-19T02:39:50.651Z,4.13
2023-01-19T02:42:25.445Z,3.78
2023-01-19T02:44:55.353Z,3.30
2023-01-19T02:47:23.652Z,4.10
2023-01-19T02:49:58.833Z,3.75
2023-01-19T02:52:27.202Z,4.05
2023-01-19T02:55:08.543Z,3.65
2023-01-19T02:57:44.103Z,3.92
2023-01-19T03:00:51.005Z,4.13
2023-01-19T03:03:32.996Z,3.55
2023-01-19T03:06:11.795Z,4.25
2023-01-19T03:08:55.998Z,4.28
2023-01-19T03:11:27.420Z,4.43
2023-01-19T03:14:20.787Z,4.57
2023-01-19T03:16:55.175Z,4.75
2023-01-19T03:19:27.554Z,4.50
2023-01-19T03:21:59.212Z,4.07
2023-01-19T03:24:30.962Z,4.45
2023-01-19T03:27:08.656Z,4.82
2023-01-19T03:29:37.799Z,4.15
2023-01-19T03:32:09.353Z,4.15
2023-01-19T03:34:38.403Z,4.55
2023-01-19T03:37:10.098Z,4.45
2023-01-19T03:39:37.950Z,4.68
2023-01-19T03:42:09.931Z,4.45
2023-01-19T03:44:38.803Z,4.88
2023-01-19T03:47:08.721Z,4.63
2023-01-19T03:49:37.772Z,4.70
2023-01-19T03:52:05.968Z,4.35
2023-01-19T03:54:33.472Z,4.40
2023-01-19T03:57:00.977Z,4.60
2023-01-19T03:59:28.436Z,4.65
2023-01-19T04:01:55.979Z,5.10
2023-01-19T04:04:23.681Z,4.53
2023-01-19T04:06:51.257Z,4.45
2023-01-19T04:09:20.132Z,4.32
2023-01-19T04:11:47.671Z,4.55
2023-01-19T04:14:15.117Z,4.30
2023-01-19T04:16:42.563Z,4.78
2023-01-19T04:19:10.032Z,4.82
2023-01-19T04:21:37.531Z,4.47
2023-01-19T04:24:05.392Z,4.30
2023-01-19T04:26:32.792Z,4.32
2023-01-19T04:29:00.291Z,4.70
2023-01-19T04:31:27.859Z,4.32
2023-01-19T04:33:56.353Z,5.28
2023-01-19T04:36:23.850Z,4.68
2023-01-19T04:38:51.322Z,4.65
2023-01-19T04:41:18.920Z,4.45
2023-01-19T04:43:47.670Z,4.32
2023-01-19T04:46:15.322Z,5.57
2023-01-19T04:48:42.778Z,4.97
2023-01-19T04:51:10.210Z,4.93
2023-01-19T04:53:37.683Z,5.03
2023-01-19T04:56:05.532Z,4.93
2023-01-19T04:58:32.980Z,4.93
2023-01-19T05:01:00.535Z,4.72
2023-01-19T05:03:28.054Z,5.05
2023-01-19T05:05:56.058Z,4.72
2023-01-19T05:10:51.877Z,4.75
2023-01-19T05:13:19.521Z,4.47
2023-01-19T05:15:47.009Z,5.05
2023-01-19T05:18:14.689Z,5.68
2023-01-19T05:20:42.200Z,5.70
2023-01-19T05:23:09.624Z,5.60
2023-01-19T05:25:37.117Z,4.95
2023-01-19T05:28:04.708Z,5.47
2023-01-19T05:30:32.200Z,6.07
2023-01-19T05:32:59.989Z,5.07
2023-01-19T05:38:04.207Z,4.78
2023-01-19T05:40:31.846Z,4.40
2023-01-19T05:43:01.192Z,5.45
2023-01-19T05:45:29.007Z,5.47
2023-01-19T05:47:56.505Z,5.78
2023-01-19T05:50:24.110Z,5.28
2023-01-19T05:52:53.375Z,5.65
2023-01-19T05:55:21.347Z,5.43
2023-01-19T06:00:16.571Z,5.28
2023-01-19T06:02:44.278Z,5.00
2023-01-19T06:05:11.988Z,5.60
2023-01-19T06:07:39.500Z,5.72
2023-01-19T06:10:07.944Z,5.80
2023-01-19T06:12:35.641Z,5.95
2023-01-19T06:15:03.161Z,5.90
2023-01-19T06:17:32.487Z,5.43
2023-01-19T06:19:59.995Z,6.03
2023-01-19T06:22:27.565Z,5.57
2023-01-19T06:24:55.016Z,5.45
2023-01-19T06:27:22.701Z,5.50
2023-01-19T06:29:50.110Z,5.53
2023-01-19T06:32:17.575Z,6.15
2023-01-19T06:34:46.454Z,6.32
2023-01-19T06:37:16.126Z,5.25
2023-01-19T06:39:45.364Z,5.57
2023-01-19T06:42:12.887Z,5.70
2023-01-19T06:44:47.187Z,6.18
2023-01-19T06:47:16.548Z,6.70
2023-01-19T06:49:44.152Z,6.28
2023-01-19T06:52:15.825Z,6.50
2023-01-19T06:54:45.419Z,6.22
2023-01-19T06:57:14.284Z,6.80
2023-01-19T06:59:42.033Z,6.00
2023-01-19T07:02:27.655Z,6.50
2023-01-19T07:04:56.985Z,6.72
2023-01-19T07:07:25.198Z,6.55
2023-01-19T07:09:53.961Z,6.68
2023-01-19T07:12:22.772Z,7.05
2023-01-19T07:14:50.509Z,8.23
2023-01-19T07:17:18.037Z,10.35
2023-01-19T07:19:46.605Z,7.97
2023-01-19T07:22:14.133Z,8.32
2023-01-19T07:24:41.632Z,8.18
2023-01-19T07:27:11.427Z,8.10
2023-01-19T07:29:39.273Z,8.88
2023-01-19T07:32:07.505Z,9.70
2023-01-19T07:34:35.904Z,9.10
2023-01-19T07:37:04.437Z,8.20
2023-01-19T07:39:36.522Z,8.90
2023-01-19T07:42:07.144Z,7.85
2023-01-19T07:44:37.446Z,8.13
2023-01-19T07:47:07.618Z,7.90
2023-01-19T07:49:57.113Z,7.57
2023-01-19T07:52:27.153Z,7.95
2023-01-19T07:54:58.379Z,7.72
2023-01-19T07:57:50.746Z,7.88
2023-01-19T08:00:41.916Z,7.95
2023-01-19T08:03:13.181Z,7.68
2023-01-19T08:05:40.888Z,8.18
2023-01-19T08:08:12.594Z,7.07
2023-01-19T08:10:44.034Z,7.57
2023-01-19T08:13:13.473Z,6.88
2023-01-19T08:15:44.711Z,7.57
2023-01-19T08:18:17.401Z,7.22
2023-01-19T08:20:45.976Z,6.43
2023-01-19T08:23:18.150Z,9.77
2023-01-19T08:25:46.131Z,8.77
2023-01-19T08:28:18.051Z,16.00
2023-01-19T08:30:45.874Z,13.98
2023-01-19T08:35:44.859Z,6.72
2023-01-19T08:38:15.438Z,9.15
2023-01-19T08:40:43.250Z,9.02
2023-01-19T08:43:16.729Z,10.50
2023-01-19T08:45:51.491Z,10.43
2023-01-19T08:48:23.358Z,9.30
2023-01-19T08:50:53.147Z,10.05
2023-01-19T08:53:24.262Z,9.40
2023-01-19T08:56:05.918Z,8.57
2023-01-19T08:58:44.299Z,8.57
2023-01-19T09:01:15.004Z,8.52
2023-01-19T09:03:43.810Z,7.63
2023-01-19T09:06:16.972Z,7.72
2023-01-19T09:08:46.935Z,7.72
2023-01-19T09:11:16.424Z,6.80
2023-01-19T09:13:44.962Z,8.07
2023-01-19T09:16:13.467Z,7.88
2023-01-19T09:18:42.985Z,7.13
2023-01-19T09:21:10.512Z,6.75
2023-01-19T09:23:56.315Z,6.82
2023-01-19T09:26:25.323Z,6.82
2023-01-19T09:28:52.964Z,6.97
2023-01-19T09:31:24.133Z,6.97
2023-01-19T09:33:51.681Z,8.60
2023-01-19T09:36:19.287Z,9.05
2023-01-19T09:38:46.826Z,8.77
2023-01-19T09:41:22.181Z,7.93
2023-01-19T09:44:00.293Z,8.32
2023-01-19T09:49:20.641Z,6.53
2023-01-19T09:51:50.441Z,7.50
2023-01-19T09:54:35.829Z,7.53
2023-01-19T09:57:06.622Z,7.47
2023-01-19T09:59:34.601Z,7.78
2023-01-19T10:05:01.473Z,7.38
2023-01-19T10:07:53.154Z,8.45
2023-01-19T10:10:29.934Z,7.13
2023-01-19T10:13:03.730Z,8.90
2023-01-19T10:15:41.064Z,7.70
2023-01-19T10:18:31.376Z,7.25
2023-01-19T10:21:05.975Z,7.63
2023-01-19T10:24:07.508Z,7.63
2023-01-19T10:26:43.716Z,7.40
2023-01-19T10:29:25.015Z,8.18
2023-01-19T10:31:57.607Z,9.50
2023-01-19T10:34:25.127Z,12.32
2023-01-19T10:37:05.327Z,16.60
2023-01-19T10:39:38.504Z,11.55
2023-01-19T10:42:09.777Z,9.95
2023-01-19T10:44:37.796Z,12.15
2023-01-19T10:47:06.861Z,10.02
2023-01-19T10:49:42.646Z,9.98
2023-01-19T10:52:33.993Z,11.77
2023-01-19T10:55:07.612Z,6.75
2023-01-19T10:57:38.369Z,6.03
2023-01-19T11:00:26.811Z,6.32
2023-01-19T11:02:54.356Z,4.95
2023-01-19T11:05:31.843Z,5.50
2023-01-19T11:07:59.888Z,5.00
2023-01-19T11:13:02.008Z,5.22
2023-01-19T11:15:44.229Z,4.85
2023-01-19T11:18:29.149Z,4.72
2023-01-19T11:21:03.519Z,4.30
2023-01-19T11:23:33.574Z,4.80
2023-01-19T11:26:05.075Z,7.07
2023-01-19T11:28:39.769Z,5.90
2023-01-19T11:31:10.495Z,4.80
2023-01-19T11:33:49.788Z,4.70
2023-01-19T11:36:26.979Z,4.70
2023-01-19T11:39:01.198Z,4.28
2023-01-19T11:41:31.962Z,3.05
2023-01-19T11:44:36.487Z,3.33
2023-01-19T11:47:11.801Z,4.07
2023-01-19T11:49:49.524Z,3.08
2023-01-19T11:52:20.061Z,3.40
2023-01-19T11:54:56.076Z,4.03
2023-01-19T11:57:23.828Z,4.00
2023-01-19T11:59:51.428Z,3.47
2023-01-19T12:02:27.020Z,3.28
2023-01-19T12:05:05.104Z,2.60
2023-01-19T12:07:36.044Z,3.03
2023-01-19T12:10:31.363Z,3.70
2023-01-19T12:12:59.223Z,3.83
2023-01-19T12:15:36.981Z,3.53
2023-01-19T12:18:09.983Z,3.42
2023-01-19T12:20:44.581Z,3.13
2023-01-19T12:23:22.675Z,3.55
2023-01-19T12:26:27.961Z,3.42
2023-01-19T12:29:04.088Z,3.45
2023-01-19T12:31:32.016Z,2.58
2023-01-19T12:34:25.955Z,2.60
2023-01-19T12:37:01.215Z,2.63
2023-01-19T12:39:28.851Z,3.08
2023-01-19T12:42:15.578Z,2.53
2023-01-19T12:44:45.617Z,2.80
2023-01-19T12:47:16.316Z,2.80
2023-01-19T12:49:53.996Z,2.35
2023-01-19T12:52:57.384Z,2.90
2023-01-19T12:55:39.012Z,3.00
2023-01-19T12:58:24.225Z,2.90
2023-01-19T13:01:13.531Z,2.83
2023-01-19T13:03:45.540Z,3.30
2023-01-19T13:06:13.500Z,2.75
2023-01-19T13:09:01.040Z,2.80
2023-01-19T13:11:33.258Z,3.38
2023-01-19T13:14:01.827Z,2.97
2023-01-19T13:16:29.431Z,3.45
2023-01-19T13:19:14.894Z,3.42
2023-01-19T13:21:47.420Z,3.05
2023-01-19T13:24:25.028Z,3.00
2023-01-19T13:26:57.453Z,3.78
2023-01-19T13:29:36.440Z,3.67
2023-01-19T13:32:18.703Z,3.92
2023-01-19T13:35:01.835Z,3.97
2023-01-19T13:37:36.743Z,3.17
2023-01-19T13:40:04.929Z,2.92
2023-01-19T13:42:38.495Z,3.28
2023-01-19T13:45:37.199Z,3.50
2023-01-19T13:48:14.587Z,3.05
2023-01-19T13:50:43.367Z,3.05
2023-01-19T13:53:21.250Z,2.55
2023-01-19T13:55:48.937Z,2.58
2023-01-19T13:58:24.237Z,2.33
2023-01-19T14:00:51.910Z,2.58
2023-01-19T14:03:23.683Z,2.50
2023-01-19T14:05:53.656Z,3.65
2023-01-19T14:08:22.787Z,3.00
2023-01-19T14:11:01.192Z,2.95
2023-01-19T14:13:30.901Z,2.65
2023-01-19T14:16:04.165Z,2.67
2023-01-19T14:18:36.329Z,3.38
2023-01-19T14:21:09.830Z,2.97
2023-01-19T14:23:49.281Z,2.80
2023-01-19T14:26:51.971Z,3.25
2023-01-19T14:29:27.880Z,2.97
2023-01-19T14:32:04.555Z,4.28
2023-01-19T14:34:41.294Z,4.18
2023-01-19T14:37:23.846Z,3.90
2023-01-19T14:39:51.322Z,3.30
2023-01-19T14:42:26.067Z,3.40
2023-01-19T14:44:56.389Z,3.80
2023-01-19T14:47:31.145Z,3.13
2023-01-19T14:50:07.383Z,3.45
2023-01-19T14:52:41.534Z,3.67
2023-01-19T14:55:21.859Z,3.35
2023-01-19T14:57:49.397Z,3.72
2023-01-19T15:00:21.134Z,3.30
2023-01-19T15:02:48.607Z,3.67
2023-01-19T15:05:16.673Z,3.75
2023-01-19T15:07:46.421Z,3.08
2023-01-19T15:10:22.534Z,3.20
2023-01-19T15:12:54.233Z,3.38
2023-01-19T15:15:29.221Z,3.42
2023-01-19T15:17:57.907Z,3.80
2023-01-19T15:20:25.430Z,3.45
2023-01-19T15:22:52.926Z,3.70
2023-01-19T15:25:25.666Z,3.30
2023-01-19T15:27:57.903Z,3.33
2023-01-19T15:30:33.871Z,3.15
2023-01-19T15:33:01.924Z,3.70
2023-01-19T15:35:29.428Z,3.10
2023-01-19T15:37:57.209Z,4.03
2023-01-19T15:40:24.676Z,3.10
2023-01-19T15:42:52.160Z,3.47
2023-01-19T15:45:33.296Z,3.55
2023-01-19T15:48:11.827Z,2.75
2023-01-19T15:50:43.987Z,3.05
2023-01-19T15:53:16.881Z,3.47
2023-01-19T15:55:44.901Z,3.35
2023-01-19T15:58:14.004Z,3.67
2023-01-19T16:00:41.903Z,3.20
2023-01-19T16:03:11.009Z,3.42
2023-01-19T16:05:43.207Z,3.13
2023-01-19T16:08:11.642Z,3.45
2023-01-19T16:10:40.557Z,3.92
2023-01-19T16:13:08.733Z,3.60
2023-01-19T16:18:05.639Z,2.47
2023-01-19T16:20:33.343Z,3.13
2023-01-19T16:23:14.420Z,3.42
2023-01-19T16:25:43.181Z,3.17
2023-01-19T16:30:37.999Z,3.10
2023-01-19T16:33:15.613Z,3.58
2023-01-19T16:35:43.362Z,3.60
2023-01-19T16:38:10.816Z,3.30
2023-01-19T16:40:43.132Z,3.53
2023-01-19T16:43:11.028Z,2.88
2023-01-19T16:45:56.435Z,3.42
2023-01-19T16:48:24.570Z,2.97
2023-01-19T16:53:31.770Z,3.40
2023-01-19T16:56:16.503Z,3.55
2023-01-19T16:58:44.600Z,5.43
2023-01-19T17:03:46.055Z,4.10
2023-01-19T17:06:18.244Z,4.82
2023-01-19T17:08:48.477Z,4.90
2023-01-19T17:11:26.929Z,4.80
2023-01-19T17:14:00.278Z,3.70
2023-01-19T17:16:30.934Z,3.83
2023-01-19T17:18:59.970Z,3.95
2023-01-19T17:21:27.651Z,4.85
2023-01-19T17:23:56.365Z,3.30
2023-01-19T17:26:25.847Z,3.13
2023-01-19T17:28:58.537Z,4.38
2023-01-19T17:31:26.270Z,4.13
2023-01-19T17:33:54.000Z,4.05
2023-01-19T17:36:25.237Z,4.28
2023-01-19T17:38:54.128Z,4.32
2023-01-19T17:41:27.277Z,4.60
2023-01-19T17:43:55.537Z,4.07
2023-01-19T17:46:28.171Z,5.30
2023-01-19T17:49:06.492Z,5.90
2023-01-19T17:51:34.775Z,6.78
2023-01-19T17:54:02.377Z,6.90
2023-01-19T17:56:33.416Z,4.72
2023-01-19T17:59:00.896Z,4.40
2023-01-19T18:01:30.878Z,5.22
2023-01-19T18:03:59.655Z,5.78
2023-01-19T18:06:27.284Z,5.50
2023-01-19T18:08:54.728Z,4.80
2023-01-19T18:11:22.617Z,5.05
2023-01-19T18:13:50.817Z,4.75
2023-01-19T18:16:26.606Z,4.75
2023-01-19T18:18:55.922Z,4.85
2023-01-19T18:21:27.504Z,5.00
2023-01-19T18:24:01.437Z,5.30
2023-01-19T18:26:31.531Z,5.35
2023-01-19T18:28:59.893Z,5.95
2023-01-19T18:31:28.152Z,5.95
2023-01-19T18:33:55.846Z,5.70
2023-01-19T18:36:24.067Z,6.00
2023-01-19T18:38:51.750Z,5.95
2023-01-19T18:41:22.229Z,6.85
2023-01-19T18:43:49.871Z,6.45
2023-01-19T18:46:18.954Z,5.85
2023-01-19T18:48:49.537Z,5.32
2023-01-19T18:51:17.484Z,5.47
2023-01-19T18:53:45.552Z,5.20
2023-01-19T18:58:48.862Z,5.93
2023-01-19T19:01:21.313Z,6.20
2023-01-19T19:03:51.679Z,7.85
2023-01-19T19:06:20.861Z,6.53
2023-01-19T19:08:50.953Z,7.90
2023-01-19T19:11:19.997Z,8.68
2023-01-19T19:13:58.912Z,8.95
2023-01-19T19:16:27.416Z,9.30
2023-01-19T19:18:54.886Z,9.20
2023-01-19T19:21:25.500Z,8.60
2023-01-19T19:23:55.340Z,7.30
2023-01-19T19:26:24.485Z,7.97
2023-01-19T19:28:52.067Z,7.93
2023-01-19T19:31:21.687Z,8.07
2023-01-19T19:33:51.096Z,8.20
2023-01-19T19:36:22.679Z,8.55
2023-01-19T19:38:50.914Z,8.32
2023-01-19T19:41:24.544Z,8.50
2023-01-19T19:44:11.027Z,8.18
2023-01-19T19:46:41.409Z,8.88
2023-01-19T19:49:09.105Z,9.15
2023-01-19T19:51:38.578Z,11.13
2023-01-19T19:54:06.114Z,11.70
2023-01-19T19:56:35.720Z,13.30
2023-01-19T19:59:04.125Z,12.98
2023-01-19T20:01:33.551Z,11.15
2023-01-19T20:04:20.213Z,10.00
2023-01-19T20:06:48.450Z,11.48
2023-01-19T20:09:17.124Z,10.60
2023-01-19T20:11:46.747Z,10.88
2023-01-19T20:14:16.345Z,11.38
2023-01-19T20:16:44.163Z,10.18
2023-01-19T20:19:11.631Z,9.38
2023-01-19T20:21:43.814Z,9.65
2023-01-19T20:24:17.532Z,9.85
2023-01-19T20:26:48.509Z,9.88
2023-01-19T20:29:16.571Z,9.13
2023-01-19T20:31:55.269Z,8.65
2023-01-19T20:34:26.680Z,8.27
2023-01-19T20:36:54.910Z,8.70
2023-01-19T20:39:24.507Z,8.95
2023-01-19T20:41:52.534Z,8.57
2023-01-19T20:46:50.292Z,8.98
2023-01-19T20:51:46.792Z,8.90
2023-01-19T20:54:17.528Z,7.63
2023-01-19T20:56:45.187Z,8.40
2023-01-19T20:59:13.291Z,7.75
2023-01-19T21:06:36.435Z,8.38
2023-01-19T21:09:04.586Z,8.60
2023-01-19T21:11:32.040Z,8.80
2023-01-19T21:13:59.610Z,9.20
2023-01-19T21:16:30.034Z,8.93
2023-01-19T21:18:57.647Z,9.32
2023-01-19T21:21:30.792Z,9.18
2023-01-19T21:24:00.899Z,9.07
2023-01-19T21:26:33.422Z,9.05
2023-01-19T21:29:02.188Z,8.75
2023-01-19T21:31:30.266Z,9.13
2023-01-19T21:33:58.365Z,8.52
2023-01-19T21:36:26.178Z,8.23
2023-01-19T21:39:00.099Z,8.30
2023-01-19T21:41:28.420Z,7.22
2023-01-19T21:43:55.943Z,8.07
2023-01-19T21:46:33.078Z,7.03
2023-01-19T21:49:02.895Z,8.15
2023-01-19T21:51:35.168Z,7.68
2023-01-19T21:54:06.242Z,7.38
2023-01-19T21:56:34.628Z,7.75
2023-01-19T21:59:03.263Z,7.78
2023-01-19T22:01:34.540Z,8.05
2023-01-19T22:04:02.228Z,7.80
2023-01-19T22:06:29.743Z,7.53
2023-01-19T22:08:58.282Z,7.63
2023-01-19T22:11:25.903Z,7.95
2023-01-19T22:13:54.468Z,7.47
2023-01-19T22:16:22.747Z,7.40
2023-01-19T22:18:54.127Z,6.47
2023-01-19T22:21:24.757Z,6.75
2023-01-19T22:23:55.267Z,6.70
2023-01-19T22:26:23.302Z,6.90
2023-01-19T22:28:57.268Z,7.20
2023-01-19T22:31:27.039Z,6.75
2023-01-19T22:33:55.292Z,6.68
2023-01-19T22:36:28.629Z,6.28
2023-01-19T22:38:59.072Z,6.43
2023-01-19T22:41:28.618Z,6.30
2023-01-19T22:44:02.333Z,5.72
2023-01-19T22:46:32.035Z,6.03
2023-01-19T22:48:59.702Z,6.13
2023-01-19T22:51:29.062Z,5.75
2023-01-19T22:53:56.864Z,5.22
2023-01-19T22:56:26.791Z,5.50
2023-01-19T22:58:54.746Z,5.38
2023-01-19T23:01:34.583Z,5.32
2023-01-19T23:04:04.280Z,5.38
2023-01-19T23:06:34.580Z,5.43
2023-01-19T23:09:05.221Z,4.95
2023-01-19T23:11:39.444Z,4.95
2023-01-19T23:14:09.491Z,4.90
2023-01-19T23:16:37.277Z,5.20
2023-01-19T23:19:05.113Z,4.78
2023-01-19T23:21:33.179Z,4.38
2023-01-19T23:26:30.838Z,3.95
2023-01-19T23:29:00.849Z,3.83
2023-01-19T23:31:36.956Z,4.50
2023-01-19T23:34:09.387Z,4.30
2023-01-19T23:36:38.562Z,4.25
2023-01-19T23:39:15.347Z,4.18
2023-01-19T23:41:42.941Z,4.45
2023-01-19T23:44:10.546Z,3.90
2023-01-19T23:46:38.351Z,3.95
2023-01-19T23:49:05.952Z,3.70
2023-01-19T23:51:33.918Z,3.67
2023-01-19T23:54:01.482Z,3.80
2023-01-19T23:56:34.536Z,3.00
2023-01-19T23:59:04.834Z,3.70
